Wetterstation Vordersexau
Wetterdaten: Woche 30.01.17 - 05.02.17 (KW5)
Datum Zeit Temp. A. Feuchte A. Luftdruck Regen Wind Richtung Taupunkt Windchill Windben
30.01.2017 00:00 -0,2 C 86 % 1018,4 hPa 0,0 l/m 0,0 km/h O-SO -2,3 C -0,2 C 0,0 km/h
30.01.2017 01:00 -0,5 C 86 % 1017,6 hPa 0,0 l/m 0,0 km/h O-NO -2,5 C -0,5 C 0,0 km/h
30.01.2017 02:00 0,2 C 85 % 1016,9 hPa 0,0 l/m 0,0 km/h O-SO -2,0 C 0,2 C 0,0 km/h
30.01.2017 03:00 -0,1 C 85 % 1016,4 hPa 0,0 l/m 5,8 km/h O-SO -2,3 C -0,1 C 3,2 km/h
30.01.2017 04:00 0,5 C 85 % 1015,7 hPa 0,0 l/m 5,2 km/h O-SO -1,7 C 0,5 C 2,9 km/h
30.01.2017 05:00 1,1 C 85 % 1015,8 hPa 0,0 l/m 0,0 km/h O-SO -1,1 C 1,1 C 0,0 km/h
30.01.2017 06:00 1,5 C 85 % 1015,5 hPa 0,0 l/m 0,0 km/h O-SO -0,7 C 1,5 C 0,0 km/h
30.01.2017 07:00 4,5 C 86 % 1014,8 hPa 0,0 l/m 7,8 km/h O-NO 2,4 C 3,2 C 4,3 km/h
30.01.2017 08:00 4,9 C 83 % 1014,3 hPa 0,0 l/m 0,0 km/h O-NO 2,3 C 4,9 C 0,0 km/h
30.01.2017 09:00 4,4 C 83 % 1014,6 hPa 0,0 l/m 0,0 km/h O-SO 1,8 C 4,4 C 0,0 km/h
30.01.2017 10:00 3,3 C 84 % 1014,0 hPa 0,0 l/m 0,0 km/h NO 0,9 C 3,3 C 0,0 km/h
30.01.2017 11:00 4,7 C 84 % 1013,9 hPa 0,0 l/m 0,0 km/h O-SO 2,2 C 4,7 C 0,0 km/h
30.01.2017 12:00 4,8 C 84 % 1013,8 hPa 0,0 l/m 0,0 km/h NO 2,3 C 4,8 C 0,0 km/h
30.01.2017 13:00 5,4 C 82 % 1013,3 hPa 0,5 l/m 0,0 km/h SO 2,6 C 5,4 C 0,0 km/h
30.01.2017 14:00 4,9 C 85 % 1012,8 hPa 1,0 l/m 9,7 km/h S 2,6 C 2,2 C 5,4 km/h
30.01.2017 15:00 5,5 C 84 % 1012,4 hPa 0,0 l/m 0,0 km/h NO 3,0 C 5,5 C 0,0 km/h
30.01.2017 16:00 5,3 C 84 % 1012,4 hPa 0,0 l/m 2,6 km/h SO 2,8 C 5,3 C 1,4 km/h
30.01.2017 17:00 5,8 C 86 % 1012,3 hPa 0,5 l/m 7,8 km/h S 3,6 C 4,6 C 4,3 km/h
30.01.2017 18:00 6,4 C 85 % 1012,4 hPa 1,0 l/m 18,8 km/h S 4,1 C -0,9 C 10,4 km/h
30.01.2017 19:00 7,3 C 86 % 1012,7 hPa 0,0 l/m 24,6 km/h S-SW 5,1 C -1,7 C 13,7 km/h
30.01.2017 20:00 7,6 C 85 % 1012,8 hPa 0,0 l/m 14,3 km/h SW 5,2 C 2,6 C 7,9 km/h
30.01.2017 21:00 7,8 C 86 % 1012,9 hPa 0,0 l/m 5,2 km/h SW 5,6 C 7,8 C 2,9 km/h
30.01.2017 22:00 7,9 C 85 % 1012,8 hPa 0,0 l/m 11,0 km/h W-SW 5,5 C 4,7 C 6,1 km/h
30.01.2017 23:00 7,9 C 85 % 1012,6 hPa 0,0 l/m 42,8 km/h W-SW 5,5 C -4,6 C 23,8 km/h
31.01.2017 00:00 8,3 C 85 % 1012,3 hPa 0,0 l/m 22,7 km/h W-SW 5,9 C 0,2 C 12,6 km/h
31.01.2017 01:00 8,1 C 85 % 1012,2 hPa 0,0 l/m 22,0 km/h W-SW 5,7 C 0,2 C 12,2 km/h
31.01.2017 02:00 7,9 C 86 % 1012,1 hPa 0,0 l/m 8,4 km/h W-SW 5,7 C 6,4 C 4,7 km/h
31.01.2017 03:00 7,4 C 85 % 1011,8 hPa 0,5 l/m 20,7 km/h SW 5,0 C -0,3 C 11,5 km/h
31.01.2017 04:00 7,3 C 84 % 1011,3 hPa 0,5 l/m 14,9 km/h SW 4,8 C 1,9 C 8,3 km/h
31.01.2017 05:00 7,3 C 83 % 1011,3 hPa 0,5 l/m 14,3 km/h SW 4,6 C 2,2 C 7,9 km/h
31.01.2017 06:00 7,1 C 81 % 1011,3 hPa 0,5 l/m 1,3 km/h W-SW 4,1 C 7,1 C 0,7 km/h
31.01.2017 07:00 7,3 C 80 % 1011,5 hPa 1,0 l/m 12,3 km/h W 4,1 C 3,2 C 6,8 km/h
31.01.2017 08:00 7,2 C 79 % 1011,7 hPa 0,5 l/m 0,0 km/h W-SW 3,8 C 7,2 C 0,0 km/h
31.01.2017 09:00 7,3 C 78 % 1011,9 hPa 1,0 l/m 0,6 km/h SW 3,7 C 7,3 C 0,4 km/h
31.01.2017 10:00 7,5 C 77 % 1012,2 hPa 0,5 l/m 6,5 km/h W-SW 3,7 C 7,4 C 3,6 km/h
31.01.2017 11:00 7,9 C 78 % 1012,7 hPa 0,0 l/m 3,2 km/h S-SW 4,3 C 7,9 C 1,8 km/h
31.01.2017 12:00 8,1 C 79 % 1012,5 hPa 0,5 l/m 1,3 km/h S-SW 4,7 C 8,1 C 0,7 km/h
31.01.2017 13:00 8,1 C 80 % 1012,4 hPa 0,0 l/m 0,0 km/h SW 4,9 C 8,1 C 0,0 km/h
31.01.2017 14:00 8,2 C 80 % 1012,2 hPa 0,0 l/m 0,0 km/h W 5,0 C 8,2 C 0,0 km/h
31.01.2017 15:00 8,1 C 82 % 1012,3 hPa 0,0 l/m 0,0 km/h W 5,2 C 8,1 C 0,0 km/h
31.01.2017 16:00 7,5 C 83 % 1012,5 hPa 0,0 l/m 0,0 km/h W 4,8 C 7,5 C 0,0 km/h
31.01.2017 17:00 6,5 C 83 % 1012,9 hPa 0,5 l/m 0,0 km/h W 3,8 C 6,5 C 0,0 km/h
31.01.2017 18:00 5,7 C 82 % 1013,4 hPa 0,5 l/m 0,0 km/h W 2,9 C 5,7 C 0,0 km/h
31.01.2017 19:00 4,8 C 81 % 1013,8 hPa 0,5 l/m 0,0 km/h W 1,8 C 4,8 C 0,0 km/h
31.01.2017 20:00 3,9 C 81 % 1014,4 hPa 0,5 l/m 0,0 km/h W 0,9 C 3,9 C 0,0 km/h
31.01.2017 21:00 3,3 C 80 % 1014,4 hPa 0,0 l/m 0,0 km/h W 0,2 C 3,3 C 0,0 km/h
31.01.2017 22:00 2,8 C 79 % 1014,8 hPa 0,0 l/m 0,0 km/h W -0,5 C 2,8 C 0,0 km/h
31.01.2017 23:00 2,4 C 79 % 1014,8 hPa 0,5 l/m 0,0 km/h W -0,9 C 2,4 C 0,0 km/h
01.02.2017 00:00 2,2 C 79 % 1014,9 hPa 0,0 l/m 0,0 km/h W -1,1 C 2,2 C 0,0 km/h
01.02.2017 01:00 1,9 C 79 % 1014,8 hPa 0,0 l/m 0,0 km/h W -1,3 C 1,9 C 0,0 km/h
01.02.2017 02:00 1,9 C 79 % 1015,1 hPa 0,0 l/m 0,0 km/h W -1,3 C 1,9 C 0,0 km/h
01.02.2017 03:00 1,8 C 78 % 1015,0 hPa 0,0 l/m 0,0 km/h W -1,6 C 1,8 C 0,0 km/h
01.02.2017 04:00 1,6 C 78 % 1014,9 hPa 0,0 l/m 0,0 km/h W -1,8 C 1,6 C 0,0 km/h
01.02.2017 05:00 1,5 C 77 % 1014,7 hPa 0,5 l/m 0,0 km/h W -2,1 C 1,5 C 0,0 km/h
01.02.2017 06:00 1,4 C 77 % 1014,6 hPa 0,0 l/m 0,0 km/h W -2,2 C 1,4 C 0,0 km/h
01.02.2017 07:00 1,4 C 77 % 1014,5 hPa 0,0 l/m 0,0 km/h W -2,2 C 1,4 C 0,0 km/h
01.02.2017 08:00 1,4 C 77 % 1014,5 hPa 0,0 l/m 0,0 km/h W -2,2 C 1,4 C 0,0 km/h
01.02.2017 09:00 1,8 C 76 % 1014,7 hPa 0,0 l/m 0,0 km/h W -2,0 C 1,8 C 0,0 km/h
01.02.2017 10:00 2,4 C 76 % 1014,7 hPa 0,0 l/m 0,0 km/h W -1,4 C 2,4 C 0,0 km/h
01.02.2017 11:00 3,6 C 75 % 1014,6 hPa 0,0 l/m 0,0 km/h W -0,4 C 3,6 C 0,0 km/h
01.02.2017 12:00 4,6 C 74 % 1014,2 hPa 0,0 l/m 0,0 km/h W 0,4 C 4,6 C 0,0 km/h
01.02.2017 13:00 6,5 C 78 % 1013,6 hPa 0,0 l/m 0,0 km/h N-NW 2,9 C 6,5 C 0,0 km/h
01.02.2017 14:00 9,1 C 87 % 1013,0 hPa 0,0 l/m 0,0 km/h W 7,1 C 9,1 C 0,0 km/h
01.02.2017 15:00 9,8 C 82 % 1012,7 hPa 0,0 l/m 0,0 km/h W 6,9 C 9,8 C 0,0 km/h
01.02.2017 16:00 6,8 C 85 % 1012,7 hPa 0,0 l/m 0,0 km/h W-SW 4,5 C 6,8 C 0,0 km/h
01.02.2017 17:00 5,5 C 86 % 1013,0 hPa 0,0 l/m 0,0 km/h W-SW 3,3 C 5,5 C 0,0 km/h
01.02.2017 18:00 4,9 C 86 % 1012,7 hPa 0,0 l/m 0,0 km/h W-SW 2,8 C 4,9 C 0,0 km/h
01.02.2017 19:00 4,6 C 86 % 1012,7 hPa 0,0 l/m 0,0 km/h W 2,5 C 4,6 C 0,0 km/h
01.02.2017 20:00 4,4 C 85 % 1012,9 hPa 0,0 l/m 0,0 km/h W 2,1 C 4,4 C 0,0 km/h
01.02.2017 21:00 3,9 C 85 % 1012,4 hPa 0,0 l/m 0,0 km/h SO 1,6 C 3,9 C 0,0 km/h
01.02.2017 22:00 4,1 C 84 % 1012,3 hPa 0,0 l/m 0,0 km/h W 1,6 C 4,1 C 0,0 km/h
01.02.2017 23:00 4,0 C 83 % 1012,5 hPa 0,0 l/m 0,0 km/h W 1,4 C 4,0 C 0,0 km/h
02.02.2017 00:00 3,6 C 83 % 1012,2 hPa 0,0 l/m 0,0 km/h W 1,0 C 3,6 C 0,0 km/h
02.02.2017 01:00 3,4 C 82 % 1011,6 hPa 0,5 l/m 0,0 km/h W 0,6 C 3,4 C 0,0 km/h
02.02.2017 02:00 3,3 C 82 % 1011,8 hPa 0,0 l/m 0,0 km/h NW 0,5 C 3,3 C 0,0 km/h
02.02.2017 03:00 3,6 C 81 % 1011,1 hPa 0,0 l/m 0,0 km/h O-SO 0,7 C 3,6 C 0,0 km/h
02.02.2017 04:00 3,9 C 79 % 1010,6 hPa 0,0 l/m 0,0 km/h O 0,6 C 3,9 C 0,0 km/h
02.02.2017 05:00 5,3 C 77 % 1010,1 hPa 0,0 l/m 0,0 km/h W 1,6 C 5,3 C 0,0 km/h
02.02.2017 06:00 4,2 C 77 % 1010,5 hPa 0,0 l/m 0,0 km/h SO 0,5 C 4,2 C 0,0 km/h
02.02.2017 07:00 3,8 C 77 % 1009,9 hPa 0,0 l/m 0,0 km/h O-SO 0,1 C 3,8 C 0,0 km/h
02.02.2017 08:00 3,9 C 76 % 1009,5 hPa 0,0 l/m 0,0 km/h O-SO 0,1 C 3,9 C 0,0 km/h
02.02.2017 09:00 5,8 C 71 % 1009,4 hPa 0,0 l/m 0,0 km/h O-NO 1,0 C 5,8 C 0,0 km/h
02.02.2017 10:00 10,9 C 86 % 1009,1 hPa 0,0 l/m 0,0 km/h N-NW 8,7 C 10,9 C 0,0 km/h
02.02.2017 11:00 14,8 C 74 % 1008,7 hPa 0,0 l/m 0,0 km/h W-NW 10,2 C 14,8 C 0,0 km/h
02.02.2017 12:00 15,0 C 72 % 1008,1 hPa 0,0 l/m 0,0 km/h W 10,0 C 15,0 C 0,0 km/h
02.02.2017 13:00 13,9 C 75 % 1007,2 hPa 0,0 l/m 0,0 km/h W 9,5 C 13,9 C 0,0 km/h
02.02.2017 14:00 15,5 C 70 % 1006,2 hPa 0,0 l/m 0,0 km/h W 10,1 C 15,5 C 0,0 km/h
02.02.2017 15:00 17,2 C 63 % 1006,0 hPa 0,0 l/m 0,0 km/h W 10,1 C 17,2 C 0,0 km/h
02.02.2017 16:00 16,6 C 64 % 1006,1 hPa 0,0 l/m 0,0 km/h W 9,8 C 16,6 C 0,0 km/h
02.02.2017 17:00 12,8 C 73 % 1005,4 hPa 0,0 l/m 0,0 km/h W 8,1 C 12,8 C 0,0 km/h
02.02.2017 18:00 7,4 C 82 % 1005,8 hPa 0,0 l/m 0,0 km/h W 4,5 C 7,4 C 0,0 km/h
02.02.2017 19:00 5,8 C 84 % 1006,1 hPa 0,0 l/m 0,0 km/h W 3,3 C 5,8 C 0,0 km/h
02.02.2017 20:00 6,2 C 86 % 1006,2 hPa 0,0 l/m 0,0 km/h W 4,0 C 6,2 C 0,0 km/h
02.02.2017 21:00 6,3 C 86 % 1005,7 hPa 0,0 l/m 0,0 km/h O-SO 4,1 C 6,3 C 0,0 km/h
02.02.2017 22:00 6,3 C 86 % 1005,3 hPa 0,0 l/m 0,0 km/h NO 4,1 C 6,3 C 0,0 km/h
02.02.2017 23:00 5,9 C 86 % 1005,4 hPa 0,0 l/m 0,0 km/h O-SO 3,7 C 5,9 C 0,0 km/h
03.02.2017 00:00 5,5 C 85 % 1005,6 hPa 0,0 l/m 0,0 km/h O-SO 3,2 C 5,5 C 0,0 km/h
03.02.2017 01:00 5,1 C 85 % 1006,1 hPa 0,0 l/m 0,0 km/h O-SO 2,8 C 5,1 C 0,0 km/h
03.02.2017 02:00 5,6 C 84 % 1006,0 hPa 0,0 l/m 0,0 km/h O-SO 3,1 C 5,6 C 0,0 km/h
03.02.2017 03:00 5,9 C 83 % 1005,4 hPa 0,0 l/m 1,9 km/h O-SO 3,2 C 5,9 C 1,1 km/h
03.02.2017 04:00 5,9 C 83 % 1005,3 hPa 0,0 l/m 0,0 km/h O-SO 3,2 C 5,9 C 0,0 km/h
03.02.2017 05:00 5,9 C 83 % 1005,1 hPa 0,0 l/m 0,0 km/h S-SO 3,2 C 5,9 C 0,0 km/h
03.02.2017 06:00 6,4 C 81 % 1005,2 hPa 0,0 l/m 6,5 km/h S-SW 3,4 C 6,3 C 3,6 km/h
03.02.2017 07:00 8,9 C 86 % 1006,2 hPa 0,0 l/m 20,7 km/h S 6,7 C 1,6 C 11,5 km/h
03.02.2017 08:00 7,8 C 86 % 1006,5 hPa 0,0 l/m 7,1 km/h S 5,6 C 7,2 C 4,0 km/h
03.02.2017 09:00 7,9 C 83 % 1006,8 hPa 0,5 l/m 3,2 km/h S-SW 5,2 C 7,9 C 1,8 km/h
03.02.2017 10:00 9,3 C 80 % 1006,6 hPa 0,0 l/m 12,3 km/h W 6,0 C 5,6 C 6,8 km/h
03.02.2017 11:00 14,1 C 67 % 1006,6 hPa 0,0 l/m 16,2 km/h SW 8,1 C 9,7 C 9,0 km/h
03.02.2017 12:00 13,0 C 65 % 1006,3 hPa 0,0 l/m 27,9 km/h S-SW 6,6 C 5,3 C 15,5 km/h
03.02.2017 13:00 14,3 C 61 % 1005,3 hPa 0,0 l/m 18,8 km/h W-NW 6,9 C 9,2 C 10,4 km/h
03.02.2017 14:00 12,6 C 65 % 1004,7 hPa 0,0 l/m 5,2 km/h W-SW 6,2 C 12,6 C 2,9 km/h
03.02.2017 15:00 18,3 C 51 % 1003,7 hPa 0,0 l/m 0,0 km/h N-NW 8,0 C 18,3 C 0,0 km/h
03.02.2017 16:00 20,8 C 43 % 1003,3 hPa 0,0 l/m 0,0 km/h N-NW 7,8 C 20,8 C 0,0 km/h
03.02.2017 17:00 10,5 C 61 % 1003,0 hPa 0,0 l/m 0,0 km/h N-NW 3,3 C 10,5 C 0,0 km/h
03.02.2017 18:00 5,8 C 76 % 1003,6 hPa 0,0 l/m 0,0 km/h N-NW 1,9 C 5,8 C 0,0 km/h
03.02.2017 19:00 5,4 C 81 % 1004,3 hPa 0,0 l/m 0,0 km/h O 2,4 C 5,4 C 0,0 km/h
03.02.2017 20:00 6,1 C 83 % 1004,6 hPa 0,0 l/m 0,0 km/h S 3,4 C 6,1 C 0,0 km/h
03.02.2017 21:00 8,5 C 76 % 1005,7 hPa 0,0 l/m 2,6 km/h SW 4,5 C 8,5 C 1,4 km/h
03.02.2017 22:00 8,9 C 71 % 1005,9 hPa 0,0 l/m 6,5 km/h W-SW 3,9 C 8,9 C 3,6 km/h
03.02.2017 23:00 8,8 C 70 % 1005,6 hPa 0,0 l/m 16,8 km/h S-SW 3,6 C 2,9 C 9,4 km/h
04.02.2017 00:00 7,6 C 71 % 1005,7 hPa 0,0 l/m 10,4 km/h S-SW 2,7 C 4,7 C 5,8 km/h
04.02.2017 01:00 7,6 C 71 % 1005,7 hPa 0,0 l/m 1,3 km/h S-SW 2,7 C 7,6 C 0,7 km/h
04.02.2017 02:00 7,6 C 70 % 1005,4 hPa 0,0 l/m 17,5 km/h N 2,5 C 1,1 C 9,7 km/h
04.02.2017 03:00 5,2 C 74 % 1003,8 hPa 0,0 l/m 0,0 km/h N-NO 1,0 C 5,2 C 0,0 km/h
04.02.2017 04:00 3,0 C 80 % 1003,0 hPa 0,0 l/m 0,0 km/h O -0,1 C 3,0 C 0,0 km/h
04.02.2017 05:00 2,2 C 82 % 1001,9 hPa 0,0 l/m 0,0 km/h O -0,5 C 2,2 C 0,0 km/h
04.02.2017 06:00 2,8 C 83 % 1001,5 hPa 0,0 l/m 0,0 km/h O-SO 0,2 C 2,8 C 0,0 km/h
04.02.2017 07:00 3,1 C 83 % 1000,8 hPa 0,0 l/m 0,0 km/h SO 0,5 C 3,1 C 0,0 km/h
04.02.2017 08:00 3,4 C 82 % 1000,2 hPa 0,0 l/m 7,1 km/h O-SO 0,6 C 2,7 C 4,0 km/h
04.02.2017 09:00 4,4 C 80 % 998,8 hPa 0,0 l/m 22,0 km/h S 1,3 C -4,7 C 12,2 km/h
04.02.2017 10:00 4,9 C 78 % 1000,4 hPa 0,0 l/m 1,9 km/h N-NW 1,4 C 4,9 C 1,1 km/h
04.02.2017 11:00 6,1 C 77 % 999,9 hPa 0,0 l/m 0,0 km/h N-NO 2,4 C 6,1 C 0,0 km/h
04.02.2017 12:00 5,9 C 79 % 998,9 hPa 0,5 l/m 0,0 km/h SO 2,5 C 5,9 C 0,0 km/h
04.02.2017 13:00 10,1 C 73 % 996,6 hPa 0,0 l/m 23,3 km/h S-SW 5,5 C 2,4 C 13,0 km/h
04.02.2017 14:00 8,1 C 75 % 997,0 hPa 0,0 l/m 10,4 km/h S 3,9 C 5,2 C 5,8 km/h
04.02.2017 15:00 9,2 C 73 % 996,1 hPa 0,0 l/m 23,3 km/h S-SW 4,6 C 1,2 C 13,0 km/h
04.02.2017 16:00 7,2 C 80 % 997,1 hPa 0,0 l/m 25,3 km/h S 4,0 C -2,0 C 14,0 km/h
04.02.2017 17:00 7,6 C 78 % 998,4 hPa 0,0 l/m 36,3 km/h S-SW 4,0 C -4,0 C 20,2 km/h
04.02.2017 18:00 6,9 C 79 % 1000,2 hPa 0,5 l/m 7,1 km/h W 3,5 C 6,3 C 4,0 km/h
04.02.2017 19:00 6,5 C 81 % 1001,9 hPa 0,0 l/m 18,1 km/h W-SW 3,5 C -0,5 C 10,1 km/h
04.02.2017 20:00 6,4 C 83 % 1003,0 hPa 0,0 l/m 17,5 km/h SW 3,7 C -0,4 C 9,7 km/h
04.02.2017 21:00 6,4 C 80 % 1003,8 hPa 0,0 l/m 31,1 km/h SW 3,2 C -4,7 C 17,3 km/h
04.02.2017 22:00 7,0 C 75 % 1004,1 hPa 0,0 l/m 16,8 km/h W-SW 2,9 C 0,7 C 9,4 km/h
04.02.2017 23:00 6,9 C 73 % 1004,6 hPa 0,0 l/m 4,5 km/h S-SW 2,4 C 6,9 C 2,5 km/h
05.02.2017 00:00 6,3 C 74 % 1005,1 hPa 0,0 l/m 11,0 km/h S 2,0 C 2,9 C 6,1 km/h
05.02.2017 01:00 4,0 C 74 % 1004,7 hPa 0,0 l/m 0,0 km/h N-NO -0,2 C 4,0 C 0,0 km/h
05.02.2017 02:00 2,3 C 80 % 1004,1 hPa 0,0 l/m 0,0 km/h O-SO -0,8 C 2,3 C 0,0 km/h
05.02.2017 03:00 1,2 C 83 % 1003,3 hPa 0,0 l/m 0,0 km/h O-SO -1,4 C 1,2 C 0,0 km/h
05.02.2017 04:00 0,3 C 84 % 1002,7 hPa 0,0 l/m 0,0 km/h O-NO -2,1 C 0,3 C 0,0 km/h
05.02.2017 05:00 0,9 C 85 % 1001,9 hPa 0,0 l/m 0,0 km/h O-SO -1,3 C 0,9 C 0,0 km/h
05.02.2017 06:00 1,3 C 85 % 1000,7 hPa 0,0 l/m 0,0 km/h SO -0,9 C 1,3 C 0,0 km/h
05.02.2017 07:00 1,6 C 85 % 1000,1 hPa 0,0 l/m 11,7 km/h NO -0,6 C -3,0 C 6,5 km/h
05.02.2017 08:00 1,3 C 85 % 999,7 hPa 0,0 l/m 0,0 km/h NO -0,9 C 1,3 C 0,0 km/h
05.02.2017 09:00 2,1 C 85 % 1000,5 hPa 0,0 l/m 0,0 km/h S-SO -0,2 C 2,1 C 0,0 km/h
05.02.2017 10:00 3,4 C 84 % 1000,7 hPa 0,0 l/m 0,0 km/h O-SO 1,0 C 3,4 C 0,0 km/h
05.02.2017 11:00 3,3 C 84 % 1000,3 hPa 1,0 l/m 0,0 km/h O 0,9 C 3,3 C 0,0 km/h
05.02.2017 12:00 5,9 C 85 % 999,6 hPa 0,5 l/m 0,0 km/h N-NW 3,6 C 5,9 C 0,0 km/h
05.02.2017 13:00 5,9 C 85 % 999,5 hPa 0,0 l/m 0,0 km/h W 3,6 C 5,9 C 0,0 km/h
05.02.2017 14:00 5,1 C 86 % 999,5 hPa 0,5 l/m 0,0 km/h W-NW 3,0 C 5,1 C 0,0 km/h
05.02.2017 15:00 4,7 C 86 % 998,8 hPa 0,5 l/m 0,0 km/h W-NW 2,6 C 4,7 C 0,0 km/h
05.02.2017 16:00 4,4 C 86 % 999,3 hPa 0,5 l/m 0,0 km/h W-NW 2,3 C 4,4 C 0,0 km/h
05.02.2017 17:00 4,1 C 86 % 999,8 hPa 1,0 l/m 0,0 km/h W-NW 2,0 C 4,1 C 0,0 km/h
05.02.2017 18:00 3,9 C 86 % 1000,5 hPa 0,5 l/m 0,0 km/h W-NW 1,8 C 3,9 C 0,0 km/h
05.02.2017 19:00 3,8 C 86 % 1001,0 hPa 1,6 l/m 0,0 km/h W-NW 1,7 C 3,8 C 0,0 km/h
05.02.2017 20:00 3,8 C 86 % 1001,3 hPa 0,5 l/m 0,0 km/h W 1,7 C 3,8 C 0,0 km/h
05.02.2017 21:00 3,9 C 85 % 1001,8 hPa 1,0 l/m 0,0 km/h NW 1,6 C 3,9 C 0,0 km/h
05.02.2017 22:00 3,8 C 85 % 1002,4 hPa 1,0 l/m 0,0 km/h NW 1,5 C 3,8 C 0,0 km/h
05.02.2017 23:00 3,6 C 85 % 1003,1 hPa 1,6 l/m 0,0 km/h NW 1,3 C 3,6 C 0,0 km/h
Min-Datum _ 30.01.17 03.02.17 04.02.17 - 30.01.17 - 30.01.17 04.02.17 30.01.17
_ Min-Zeit 01:10 16:10 15:10 - 00:10 - 01:10 09:10 00:10
Minimum _ -0,5 C 43 % 996,1 hPa - 0,0 km/h - -2,5 C -4,7 C 0,0 km/h
Max-Datum _ 03.02.17 01.02.17 30.01.17 05.02.17 30.01.17 - 02.02.17 03.02.17 30.01.17
_ Max-Zeit 16:10 14:10 00:10 19:10 23:10 - 11:10 16:10 23:10
Maximum _ 20,8 C 87 % 1018,4 hPa 1,6 l/m 42,8 km/h
W-SW
- 10,2 C 20,8 C 23,8 km/h
W-SW
Durchschnitt _ 5,9 C 80 % 1008,1 hPa #24,3 l/m 4,3 km/h W 2,7 C 4,6 C 2,4 km/h
www.sexauwetter.de